sensor_id;sensor_type;location;lat;lon;timestamp;pressure;altitude;pressure_sealevel;temperature;humidity
69780;BME280;57052;55.602;38.096;2023-05-01T00:00:49;99415.38;;;9.69;69.46
69780;BME280;57052;55.602;38.096;2023-05-01T00:03:15;99401.34;;;9.62;69.98
69780;BME280;57052;55.602;38.096;2023-05-01T00:05:42;99409.97;;;9.69;69.75
69780;BME280;57052;55.602;38.096;2023-05-01T00:08:08;99393.81;;;9.64;69.99
69780;BME280;57052;55.602;38.096;2023-05-01T00:10:35;99415.38;;;9.69;69.88
69780;BME280;57052;55.602;38.096;2023-05-01T00:13:01;99404.09;;;9.57;69.61
69780;BME280;57052;55.602;38.096;2023-05-01T00:15:26;99412.66;;;9.69;69.92
69780;BME280;57052;55.602;38.096;2023-05-01T00:17:52;99409.16;;;9.68;69.99
69780;BME280;57052;55.602;38.096;2023-05-01T00:20:18;99409.69;;;9.71;70.06
69780;BME280;57052;55.602;38.096;2023-05-01T00:22:44;99403.75;;;9.68;70.55
69780;BME280;57052;55.602;38.096;2023-05-01T00:25:09;99396.22;;;9.65;70.27
69780;BME280;57052;55.602;38.096;2023-05-01T00:27:35;99394.38;;;9.61;70.29
69780;BME280;57052;55.602;38.096;2023-05-01T00:30:01;99397.25;;;9.69;70.10
69780;BME280;57052;55.602;38.096;2023-05-01T00:32:28;99389.94;;;9.70;70.22
69780;BME280;57052;55.602;38.096;2023-05-01T00:34:54;99385.88;;;9.73;70.82
69780;BME280;57052;55.602;38.096;2023-05-01T00:37:22;99385.97;;;9.62;70.10
69780;BME280;57052;55.602;38.096;2023-05-01T00:39:48;99381.06;;;9.64;70.61
69780;BME280;57052;55.602;38.096;2023-05-01T00:42:14;99391.09;;;9.64;70.12
69780;BME280;57052;55.602;38.096;2023-05-01T00:44:39;99402.16;;;9.62;70.79
69780;BME280;57052;55.602;38.096;2023-05-01T00:47:05;99395.44;;;9.60;70.32
69780;BME280;57052;55.602;38.096;2023-05-01T00:49:31;99382.78;;;9.55;70.54
69780;BME280;57052;55.602;38.096;2023-05-01T00:51:56;99399.47;;;9.62;70.95
69780;BME280;57052;55.602;38.096;2023-05-01T00:54:23;99399.50;;;9.57;70.43
69780;BME280;57052;55.602;38.096;2023-05-01T00:56:50;99393.94;;;9.49;70.52
69780;BME280;57052;55.602;38.096;2023-05-01T00:59:16;99404.69;;;9.54;71.12
69780;BME280;57052;55.602;38.096;2023-05-01T01:01:42;99413.88;;;9.53;70.91
69780;BME280;57052;55.602;38.096;2023-05-01T01:04:08;99406.28;;;9.55;70.84
69780;BME280;57052;55.602;38.096;2023-05-01T01:12:38;99386.84;;;9.53;71.74
69780;BME280;57052;55.602;38.096;2023-05-01T01:15:32;99378.19;;;9.56;71.79
69780;BME280;57052;55.602;38.096;2023-05-01T01:18:16;99355.28;;;9.48;71.92
69780;BME280;57052;55.602;38.096;2023-05-01T01:20:48;99363.31;;;9.58;71.05
69780;BME280;57052;55.602;38.096;2023-05-01T01:34:43;99329.19;;;9.39;71.48
69780;BME280;57052;55.602;38.096;2023-05-01T01:37:19;99317.56;;;9.38;72.05
69780;BME280;57052;55.602;38.096;2023-05-01T01:40:23;99330.00;;;9.39;72.88
69780;BME280;57052;55.602;38.096;2023-05-01T01:42:54;99324.94;;;9.28;74.09
69780;BME280;57052;55.602;38.096;2023-05-01T01:45:29;99314.41;;;9.31;71.91
69780;BME280;57052;55.602;38.096;2023-05-01T01:47:58;99336.44;;;9.43;71.59
69780;BME280;57052;55.602;38.096;2023-05-01T01:50:26;99345.88;;;9.46;70.99
69780;BME280;57052;55.602;38.096;2023-05-01T01:52:53;99335.06;;;9.46;71.33
69780;BME280;57052;55.602;38.096;2023-05-01T01:55:26;99334.03;;;9.42;71.65
69780;BME280;57052;55.602;38.096;2023-05-01T01:57:53;99317.81;;;9.42;71.19
69780;BME280;57052;55.602;38.096;2023-05-01T02:00:20;99310.75;;;9.46;71.70
69780;BME280;57052;55.602;38.096;2023-05-01T02:02:47;99302.13;;;9.44;71.10
69780;BME280;57052;55.602;38.096;2023-05-01T02:05:15;99316.66;;;9.48;71.26
69780;BME280;57052;55.602;38.096;2023-05-01T02:07:45;99326.16;;;9.45;71.26
69780;BME280;57052;55.602;38.096;2023-05-01T02:10:12;99317.91;;;9.32;71.43
69780;BME280;57052;55.602;38.096;2023-05-01T02:12:39;99335.88;;;9.46;71.46
69780;BME280;57052;55.602;38.096;2023-05-01T02:15:06;99340.69;;;9.49;71.38
69780;BME280;57052;55.602;38.096;2023-05-01T02:17:35;99351.78;;;9.48;70.96
69780;BME280;57052;55.602;38.096;2023-05-01T02:20:01;99370.13;;;9.51;71.60
69780;BME280;57052;55.602;38.096;2023-05-01T02:22:29;99385.53;;;9.50;70.98
69780;BME280;57052;55.602;38.096;2023-05-01T02:24:56;99377.00;;;9.38;71.09
69780;BME280;57052;55.602;38.096;2023-05-01T02:27:29;99400.41;;;9.48;71.74
69780;BME280;57052;55.602;38.096;2023-05-01T02:29:56;99398.25;;;9.45;71.24
69780;BME280;57052;55.602;38.096;2023-05-01T02:32:22;99415.00;;;9.47;70.89
69780;BME280;57052;55.602;38.096;2023-05-01T02:34:48;99421.50;;;9.46;71.55
69780;BME280;57052;55.602;38.096;2023-05-01T02:37:14;99421.72;;;9.49;71.25
69780;BME280;57052;55.602;38.096;2023-05-01T02:39:40;99420.34;;;9.52;71.09
69780;BME280;57052;55.602;38.096;2023-05-01T02:42:07;99404.97;;;9.52;71.35
69780;BME280;57052;55.602;38.096;2023-05-01T02:44:49;99399.03;;;9.50;72.28
69780;BME280;57052;55.602;38.096;2023-05-01T02:47:19;99382.06;;;9.45;71.19
69780;BME280;57052;55.602;38.096;2023-05-01T02:49:46;99400.38;;;9.53;71.33
69780;BME280;57052;55.602;38.096;2023-05-01T02:52:16;99383.44;;;9.42;71.25
69780;BME280;57052;55.602;38.096;2023-05-01T02:54:43;99396.25;;;9.60;70.82
69780;BME280;57052;55.602;38.096;2023-05-01T02:57:10;99394.88;;;9.63;71.62
69780;BME280;57052;55.602;38.096;2023-05-01T02:59:36;99404.31;;;9.65;71.36
69780;BME280;57052;55.602;38.096;2023-05-01T03:02:01;99412.13;;;9.67;71.04
69780;BME280;57052;55.602;38.096;2023-05-01T03:04:27;99399.25;;;9.59;71.32
69780;BME280;57052;55.602;38.096;2023-05-01T03:06:53;99396.22;;;9.65;70.90
69780;BME280;57052;55.602;38.096;2023-05-01T03:09:19;99395.34;;;9.70;71.13
69780;BME280;57052;55.602;38.096;2023-05-01T03:11:45;99398.63;;;9.67;70.62
69780;BME280;57052;55.602;38.096;2023-05-01T03:14:11;99408.63;;;9.66;70.57
69780;BME280;57052;55.602;38.096;2023-05-01T03:16:36;99406.16;;;9.70;70.71
69780;BME280;57052;55.602;38.096;2023-05-01T03:19:02;99412.03;;;9.77;70.24
69780;BME280;57052;55.602;38.096;2023-05-01T03:21:28;99403.16;;;9.77;70.63
69780;BME280;57052;55.602;38.096;2023-05-01T03:23:53;99398.56;;;9.72;69.99
69780;BME280;57052;55.602;38.096;2023-05-01T03:26:19;99418.56;;;9.76;70.38
69780;BME280;57052;55.602;38.096;2023-05-01T03:28:44;99413.72;;;9.73;70.47
69780;BME280;57052;55.602;38.096;2023-05-01T03:31:11;99416.06;;;9.80;70.26
69780;BME280;57052;55.602;38.096;2023-05-01T03:33:36;99401.88;;;9.69;70.65
69780;BME280;57052;55.602;38.096;2023-05-01T03:36:03;99424.78;;;9.77;69.94
69780;BME280;57052;55.602;38.096;2023-05-01T03:38:30;99425.50;;;9.82;70.34
69780;BME280;57052;55.602;38.096;2023-05-01T03:40:56;99428.75;;;9.84;70.23
69780;BME280;57052;55.602;38.096;2023-05-01T03:43:23;99443.31;;;9.88;69.56
69780;BME280;57052;55.602;38.096;2023-05-01T03:45:50;99437.94;;;9.83;69.86
69780;BME280;57052;55.602;38.096;2023-05-01T03:48:19;99449.22;;;9.90;69.88
69780;BME280;57052;55.602;38.096;2023-05-01T03:50:45;99455.69;;;9.94;69.68
69780;BME280;57052;55.602;38.096;2023-05-01T03:53:11;99452.50;;;9.87;69.72
69780;BME280;57052;55.602;38.096;2023-05-01T03:55:37;99447.69;;;9.84;69.76
69780;BME280;57052;55.602;38.096;2023-05-01T03:58:04;99447.34;;;9.91;69.85
69780;BME280;57052;55.602;38.096;2023-05-01T04:00:31;99439.47;;;9.94;69.82
69780;BME280;57052;55.602;38.096;2023-05-01T04:02:57;99438.63;;;9.99;70.41
69780;BME280;57052;55.602;38.096;2023-05-01T04:05:23;99363.53;;;9.62;70.18
69780;BME280;57052;55.602;38.096;2023-05-01T04:07:48;99421.59;;;9.98;70.06
69780;BME280;57052;55.602;38.096;2023-05-01T04:10:14;99427.75;;;10.04;69.76
69780;BME280;57052;55.602;38.096;2023-05-01T04:12:41;99427.47;;;10.05;69.56
69780;BME280;57052;55.602;38.096;2023-05-01T04:15:07;99436.09;;;10.07;69.97
69780;BME280;57052;55.602;38.096;2023-05-01T04:17:35;99425.31;;;10.02;69.40
69780;BME280;57052;55.602;38.096;2023-05-01T04:20:01;99443.41;;;10.12;69.65
69780;BME280;57052;55.602;38.096;2023-05-01T04:22:29;99436.63;;;10.09;69.64
69780;BME280;57052;55.602;38.096;2023-05-01T04:24:54;99452.03;;;10.14;69.51
69780;BME280;57052;55.602;38.096;2023-05-01T04:27:20;99465.25;;;10.15;69.27
69780;BME280;57052;55.602;38.096;2023-05-01T04:29:46;99449.53;;;10.17;69.55
69780;BME280;57052;55.602;38.096;2023-05-01T04:32:11;99438.22;;;10.10;69.47
69780;BME280;57052;55.602;38.096;2023-05-01T04:34:37;99458.41;;;10.23;69.70
69780;BME280;57052;55.602;38.096;2023-05-01T04:37:03;99454.84;;;10.27;69.63
69780;BME280;57052;55.602;38.096;2023-05-01T04:39:31;99465.72;;;10.22;69.44
69780;BME280;57052;55.602;38.096;2023-05-01T04:41:56;99449.03;;;10.10;69.19
69780;BME280;57052;55.602;38.096;2023-05-01T04:44:23;99454.94;;;10.17;69.36
69780;BME280;57052;55.602;38.096;2023-05-01T04:46:48;99445.50;;;10.15;69.46
69780;BME280;57052;55.602;38.096;2023-05-01T04:49:14;99448.47;;;10.18;69.85
69780;BME280;57052;55.602;38.096;2023-05-01T04:51:39;99443.00;;;10.23;69.83
69780;BME280;57052;55.602;38.096;2023-05-01T04:54:05;99433.25;;;10.22;69.43
69780;BME280;57052;55.602;38.096;2023-05-01T04:56:31;99434.03;;;10.28;69.80
69780;BME280;57052;55.602;38.096;2023-05-01T04:58:56;99448.75;;;10.41;69.51
69780;BME280;57052;55.602;38.096;2023-05-01T05:01:22;99447.38;;;10.43;68.86
69780;BME280;57052;55.602;38.096;2023-05-01T05:03:47;99437.59;;;10.47;68.83
69780;BME280;57052;55.602;38.096;2023-05-01T05:06:13;99434.72;;;10.39;68.91
69780;BME280;57052;55.602;38.096;2023-05-01T05:08:39;99450.28;;;10.52;69.02
69780;BME280;57052;55.602;38.096;2023-05-01T05:11:04;99455.91;;;10.55;69.10
69780;BME280;57052;55.602;38.096;2023-05-01T05:13:30;99454.50;;;10.58;68.72
69780;BME280;57052;55.602;38.096;2023-05-01T05:15:55;99444.63;;;10.48;68.72
69780;BME280;57052;55.602;38.096;2023-05-01T05:18:21;99464.78;;;10.61;69.07
69780;BME280;57052;55.602;38.096;2023-05-01T05:20:46;99448.28;;;10.57;68.96
69780;BME280;57052;55.602;38.096;2023-05-01T05:23:12;99472.31;;;10.64;68.71
69780;BME280;57052;55.602;38.096;2023-05-01T05:25:38;99458.91;;;10.54;68.71
69780;BME280;57052;55.602;38.096;2023-05-01T05:28:03;99439.56;;;10.42;68.59
69780;BME280;57052;55.602;38.096;2023-05-01T05:30:29;99468.09;;;10.53;68.79
69780;BME280;57052;55.602;38.096;2023-05-01T05:32:54;99473.53;;;10.53;68.67
69780;BME280;57052;55.602;38.096;2023-05-01T05:35:20;99467.06;;;10.49;68.59
69780;BME280;57052;55.602;38.096;2023-05-01T05:37:46;99471.31;;;10.55;68.93
69780;BME280;57052;55.602;38.096;2023-05-01T05:40:12;99473.97;;;10.60;69.10
69780;BME280;57052;55.602;38.096;2023-05-01T05:42:38;99474.72;;;10.65;69.17
69780;BME280;57052;55.602;38.096;2023-05-01T05:45:04;99473.91;;;10.65;69.00
69780;BME280;57052;55.602;38.096;2023-05-01T05:47:30;99461.56;;;10.59;68.64
69780;BME280;57052;55.602;38.096;2023-05-01T05:49:56;99480.66;;;10.67;69.00
69780;BME280;57052;55.602;38.096;2023-05-01T05:52:21;99480.09;;;10.70;68.76
69780;BME280;57052;55.602;38.096;2023-05-01T05:54:47;99486.25;;;10.76;68.95
69780;BME280;57052;55.602;38.096;2023-05-01T05:57:13;99475.94;;;10.78;69.02
69780;BME280;57052;55.602;38.096;2023-05-01T05:59:38;99482.16;;;10.78;68.81
69780;BME280;57052;55.602;38.096;2023-05-01T06:02:04;99471.16;;;10.70;68.83
69780;BME280;57052;55.602;38.096;2023-05-01T06:04:29;99475.66;;;10.79;68.73
69780;BME280;57052;55.602;38.096;2023-05-01T06:06:55;99485.09;;;10.82;68.74
69780;BME280;57052;55.602;38.096;2023-05-01T06:09:21;99474.59;;;10.75;68.42
69780;BME280;57052;55.602;38.096;2023-05-01T06:11:47;99490.97;;;10.89;68.99
69780;BME280;57052;55.602;38.096;2023-05-01T06:14:13;99489.22;;;10.98;68.68
69780;BME280;57052;55.602;38.096;2023-05-01T06:16:39;99490.47;;;11.06;68.60
69780;BME280;57052;55.602;38.096;2023-05-01T06:19:06;99487.19;;;11.09;68.23
69780;BME280;57052;55.602;38.096;2023-05-01T06:21:32;99496.06;;;11.14;68.12
69780;BME280;57052;55.602;38.096;2023-05-01T06:23:58;99467.50;;;11.03;68.18
69780;BME280;57052;55.602;38.096;2023-05-01T06:26:23;99491.53;;;11.10;67.80
69780;BME280;57052;55.602;38.096;2023-05-01T06:28:50;99500.81;;;11.22;67.85
69780;BME280;57052;55.602;38.096;2023-05-01T06:31:15;99489.78;;;11.19;68.02
69780;BME280;57052;55.602;38.096;2023-05-01T06:33:41;99496.72;;;11.25;67.61
69780;BME280;57052;55.602;38.096;2023-05-01T06:36:07;99510.44;;;11.33;67.67
69780;BME280;57052;55.602;38.096;2023-05-01T06:38:32;99499.09;;;11.31;67.56
69780;BME280;57052;55.602;38.096;2023-05-01T06:40:58;99513.25;;;11.47;67.68
69780;BME280;57052;55.602;38.096;2023-05-01T06:43:24;99508.09;;;11.45;67.65
69780;BME280;57052;55.602;38.096;2023-05-01T06:45:55;99513.69;;;11.54;67.58
69780;BME280;57052;55.602;38.096;2023-05-01T06:48:20;99514.69;;;11.58;67.27
69780;BME280;57052;55.602;38.096;2023-05-01T06:50:46;99524.66;;;11.63;67.15
69780;BME280;57052;55.602;38.096;2023-05-01T06:53:12;99521.16;;;11.62;67.53
69780;BME280;57052;55.602;38.096;2023-05-01T06:55:38;99535.91;;;11.75;67.19
69780;BME280;57052;55.602;38.096;2023-05-01T06:58:03;99529.38;;;11.76;67.03
69780;BME280;57052;55.602;38.096;2023-05-01T07:00:31;99545.72;;;11.89;66.63
69780;BME280;57052;55.602;38.096;2023-05-01T07:02:56;99550.75;;;11.96;66.53
69780;BME280;57052;55.602;38.096;2023-05-01T07:05:22;99565.06;;;12.01;65.76
69780;BME280;57052;55.602;38.096;2023-05-01T07:07:47;99563.44;;;12.00;65.81
69780;BME280;57052;55.602;38.096;2023-05-01T07:10:14;99577.41;;;12.07;65.56
69780;BME280;57052;55.602;38.096;2023-05-01T07:12:39;99570.81;;;12.13;65.64
69780;BME280;57052;55.602;38.096;2023-05-01T07:15:06;99556.44;;;12.13;65.20
69780;BME280;57052;55.602;38.096;2023-05-01T07:17:32;99564.41;;;12.23;65.10
69780;BME280;57052;55.602;38.096;2023-05-01T07:19:57;99550.34;;;12.21;65.25
69780;BME280;57052;55.602;38.096;2023-05-01T07:22:23;99572.81;;;12.40;65.10
69780;BME280;57052;55.602;38.096;2023-05-01T07:24:49;99576.34;;;12.41;64.12
69780;BME280;57052;55.602;38.096;2023-05-01T07:27:14;99568.41;;;12.44;64.02
69780;BME280;57052;55.602;38.096;2023-05-01T07:29:40;99561.88;;;12.45;64.17
69780;BME280;57052;55.602;38.096;2023-05-01T07:32:05;99574.19;;;12.56;64.07
69780;BME280;57052;55.602;38.096;2023-05-01T07:34:31;99580.09;;;12.58;63.37
69780;BME280;57052;55.602;38.096;2023-05-01T07:36:57;99580.28;;;12.48;63.06
69780;BME280;57052;55.602;38.096;2023-05-01T07:39:23;99595.41;;;12.54;62.44
69780;BME280;57052;55.602;38.096;2023-05-01T07:41:49;99583.94;;;12.57;62.53
69780;BME280;57052;55.602;38.096;2023-05-01T07:44:14;99596.81;;;12.65;62.32
69780;BME280;57052;55.602;38.096;2023-05-01T07:46:40;99593.22;;;12.70;61.95
69780;BME280;57052;55.602;38.096;2023-05-01T07:49:06;99602.59;;;12.77;62.03
69780;BME280;57052;55.602;38.096;2023-05-01T07:51:31;99590.09;;;12.76;61.54
69780;BME280;57052;55.602;38.096;2023-05-01T07:53:57;99566.06;;;12.70;61.71
69780;BME280;57052;55.602;38.096;2023-05-01T07:56:27;99594.44;;;12.91;61.04
69780;BME280;57052;55.602;38.096;2023-05-01T07:58:53;99599.28;;;12.94;60.70
69780;BME280;57052;55.602;38.096;2023-05-01T08:01:18;99600.28;;;12.98;61.18
69780;BME280;57052;55.602;38.096;2023-05-01T08:03:45;99604.03;;;13.02;61.02
69780;BME280;57052;55.602;38.096;2023-05-01T08:06:10;99608.78;;;13.10;61.16
69780;BME280;57052;55.602;38.096;2023-05-01T08:08:36;99604.56;;;13.18;61.36
69780;BME280;57052;55.602;38.096;2023-05-01T08:11:02;99605.00;;;13.25;60.51
69780;BME280;57052;55.602;38.096;2023-05-01T08:13:27;99594.72;;;13.22;60.21
69780;BME280;57052;55.602;38.096;2023-05-01T08:15:53;99602.88;;;13.22;59.90
69780;BME280;57052;55.602;38.096;2023-05-01T08:18:18;99613.22;;;13.33;60.12
69780;BME280;57052;55.602;38.096;2023-05-01T08:20:46;99610.22;;;13.35;59.01
69780;BME280;57052;55.602;38.096;2023-05-01T08:23:13;99622.59;;;13.41;59.00
69780;BME280;57052;55.602;38.096;2023-05-01T08:25:39;99634.78;;;13.43;58.50
69780;BME280;57052;55.602;38.096;2023-05-01T08:28:04;99634.47;;;13.45;58.19
69780;BME280;57052;55.602;38.096;2023-05-01T08:30:30;99637.59;;;13.52;58.17
69780;BME280;57052;55.602;38.096;2023-05-01T08:32:56;99634.28;;;13.55;57.88
69780;BME280;57052;55.602;38.096;2023-05-01T08:35:21;99632.56;;;13.59;58.03
69780;BME280;57052;55.602;38.096;2023-05-01T08:37:47;99635.66;;;13.66;57.86
69780;BME280;57052;55.602;38.096;2023-05-01T08:40:14;99638.28;;;13.71;57.72
69780;BME280;57052;55.602;38.096;2023-05-01T08:42:39;99639.09;;;13.72;57.88
69780;BME280;57052;55.602;38.096;2023-05-01T08:45:08;99646.16;;;13.59;56.85
69780;BME280;57052;55.602;38.096;2023-05-01T08:47:38;99647.66;;;13.65;57.48
69780;BME280;57052;55.602;38.096;2023-05-01T08:50:09;99641.09;;;13.66;57.94
69780;BME280;57052;55.602;38.096;2023-05-01T08:52:39;99649.56;;;13.65;57.30
69780;BME280;57052;55.602;38.096;2023-05-01T08:55:11;99643.09;;;13.74;57.76
69780;BME280;57052;55.602;38.096;2023-05-01T08:57:38;99652.03;;;13.88;57.86
69780;BME280;57052;55.602;38.096;2023-05-01T09:00:04;99638.94;;;13.90;57.74
69780;BME280;57052;55.602;38.096;2023-05-01T09:02:33;99661.78;;;14.03;55.79
69780;BME280;57052;55.602;38.096;2023-05-01T09:05:00;99648.50;;;14.01;56.88
69780;BME280;57052;55.602;38.096;2023-05-01T09:07:29;99661.44;;;14.18;56.55
69780;BME280;57052;55.602;38.096;2023-05-01T09:09:54;99668.59;;;14.28;56.52
69780;BME280;57052;55.602;38.096;2023-05-01T09:12:29;99667.47;;;14.29;54.61
69780;BME280;57052;55.602;38.096;2023-05-01T09:15:01;99673.44;;;14.31;56.05
69780;BME280;57052;55.602;38.096;2023-05-01T09:17:28;99667.09;;;14.22;55.73
69780;BME280;57052;55.602;38.096;2023-05-01T09:19:56;99670.75;;;14.17;55.83
69780;BME280;57052;55.602;38.096;2023-05-01T09:22:21;99674.78;;;14.20;55.77
69780;BME280;57052;55.602;38.096;2023-05-01T09:24:47;99673.84;;;14.24;55.59
69780;BME280;57052;55.602;38.096;2023-05-01T09:27:14;99663.94;;;13.92;55.55
69780;BME280;57052;55.602;38.096;2023-05-01T09:29:41;99647.63;;;13.92;55.65
69780;BME280;57052;55.602;38.096;2023-05-01T09:32:32;99673.19;;;14.05;53.94
69780;BME280;57052;55.602;38.096;2023-05-01T09:35:10;99670.25;;;14.15;55.23
69780;BME280;57052;55.602;38.096;2023-05-01T09:37:36;99662.88;;;14.15;55.16
69780;BME280;57052;55.602;38.096;2023-05-01T09:42:30;99683.44;;;14.22;54.75
69780;BME280;57052;55.602;38.096;2023-05-01T09:45:00;99674.16;;;14.23;54.69
69780;BME280;57052;55.602;38.096;2023-05-01T09:47:29;99678.31;;;14.20;54.68
69780;BME280;57052;55.602;38.096;2023-05-01T09:49:58;99685.22;;;14.26;54.10
69780;BME280;57052;55.602;38.096;2023-05-01T09:52:26;99687.47;;;14.24;54.25
69780;BME280;57052;55.602;38.096;2023-05-01T09:55:15;99687.56;;;14.19;52.63
69780;BME280;57052;55.602;38.096;2023-05-01T09:57:43;99685.72;;;14.28;53.66
69780;BME280;57052;55.602;38.096;2023-05-01T10:00:10;99696.22;;;14.21;53.60
69780;BME280;57052;55.602;38.096;2023-05-01T10:02:39;99693.03;;;14.05;53.60
69780;BME280;57052;55.602;38.096;2023-05-01T10:05:06;99691.81;;;14.11;53.15
69780;BME280;57052;55.602;38.096;2023-05-01T10:07:33;99692.75;;;14.07;53.59
69780;BME280;57052;55.602;38.096;2023-05-01T10:10:19;99703.81;;;14.10;52.11
69780;BME280;57052;55.602;38.096;2023-05-01T10:12:48;99705.91;;;14.13;53.57
69780;BME280;57052;55.602;38.096;2023-05-01T10:15:15;99715.00;;;14.23;53.57
69780;BME280;57052;55.602;38.096;2023-05-01T10:17:42;99718.50;;;14.23;53.25
69780;BME280;57052;55.602;38.096;2023-05-01T10:20:09;99713.81;;;14.15;53.45
69780;BME280;57052;55.602;38.096;2023-05-01T10:22:37;99722.72;;;14.29;53.51
69780;BME280;57052;55.602;38.096;2023-05-01T10:25:05;99726.69;;;14.37;53.09
69780;BME280;57052;55.602;38.096;2023-05-01T10:27:33;99722.53;;;14.39;52.67
69780;BME280;57052;55.602;38.096;2023-05-01T10:30:01;99716.88;;;14.36;52.74
69780;BME280;57052;55.602;38.096;2023-05-01T10:32:29;99715.19;;;14.40;52.92
69780;BME280;57052;55.602;38.096;2023-05-01T10:35:00;99715.69;;;14.42;51.87
69780;BME280;57052;55.602;38.096;2023-05-01T10:37:35;99730.63;;;14.31;51.51
69780;BME280;57052;55.602;38.096;2023-05-01T10:43:19;99724.16;;;14.27;51.29
69780;BME280;57052;55.602;38.096;2023-05-01T10:45:46;99725.97;;;14.45;52.29
69780;BME280;57052;55.602;38.096;2023-05-01T10:51:17;99735.34;;;14.74;51.02
69780;BME280;57052;55.602;38.096;2023-05-01T10:53:48;99722.94;;;14.68;51.70
69780;BME280;57052;55.602;38.096;2023-05-01T11:01:47;99743.66;;;14.56;49.95
69780;BME280;57052;55.602;38.096;2023-05-01T11:09:39;99754.41;;;14.39;50.24
69780;BME280;57052;55.602;38.096;2023-05-01T11:12:06;99754.41;;;14.39;51.06
69780;BME280;57052;55.602;38.096;2023-05-01T11:22:51;99774.69;;;13.78;51.86
69780;BME280;57052;55.602;38.096;2023-05-01T11:25:22;99764.91;;;13.77;51.65
69780;BME280;57052;55.602;38.096;2023-05-01T11:27:52;99780.13;;;13.78;51.33
69780;BME280;57052;55.602;38.096;2023-05-01T11:30:18;99764.09;;;13.63;52.27
69780;BME280;57052;55.602;38.096;2023-05-01T11:32:45;99787.44;;;13.50;52.81
69780;BME280;57052;55.602;38.096;2023-05-01T11:35:23;99801.22;;;13.40;52.47
69780;BME280;57052;55.602;38.096;2023-05-01T11:37:51;99805.88;;;13.40;53.05
69780;BME280;57052;55.602;38.096;2023-05-01T11:40:26;99816.13;;;13.43;53.39
69780;BME280;57052;55.602;38.096;2023-05-01T11:43:00;99817.59;;;13.35;52.93
69780;BME280;57052;55.602;38.096;2023-05-01T11:45:26;99824.34;;;13.38;53.15
69780;BME280;57052;55.602;38.096;2023-05-01T11:47:52;99824.91;;;13.21;53.81
69780;BME280;57052;55.602;38.096;2023-05-01T11:50:18;99843.56;;;13.28;53.75
69780;BME280;57052;55.602;38.096;2023-05-01T11:52:49;99849.59;;;13.25;53.73
69780;BME280;57052;55.602;38.096;2023-05-01T11:55:18;99849.03;;;13.09;53.99
69780;BME280;57052;55.602;38.096;2023-05-01T11:57:50;99858.47;;;12.93;54.15
69780;BME280;57052;55.602;38.096;2023-05-01T12:00:30;99872.94;;;12.70;54.99
69780;BME280;57052;55.602;38.096;2023-05-01T12:03:18;99893.84;;;12.46;54.92
69780;BME280;57052;55.602;38.096;2023-05-01T12:05:44;99847.88;;;12.12;55.24
69780;BME280;57052;55.602;38.096;2023-05-01T12:08:20;99886.19;;;12.29;55.79
69780;BME280;57052;55.602;38.096;2023-05-01T12:10:54;99893.47;;;12.34;55.79
69780;BME280;57052;55.602;38.096;2023-05-01T12:13:20;99894.50;;;12.38;55.69
69780;BME280;57052;55.602;38.096;2023-05-01T12:15:51;99911.06;;;12.36;55.42
69780;BME280;57052;55.602;38.096;2023-05-01T12:18:17;99923.03;;;12.35;55.75
69780;BME280;57052;55.602;38.096;2023-05-01T12:20:50;99905.94;;;12.11;55.74
69780;BME280;57052;55.602;38.096;2023-05-01T12:23:17;99904.56;;;11.85;56.44
69780;BME280;57052;55.602;38.096;2023-05-01T12:25:44;99877.31;;;11.66;56.05
69780;BME280;57052;55.602;38.096;2023-05-01T12:28:14;99904.88;;;11.78;56.53
69780;BME280;57052;55.602;38.096;2023-05-01T12:30:42;99923.00;;;11.83;56.53
69780;BME280;57052;55.602;38.096;2023-05-01T12:33:15;99923.34;;;11.76;56.30
69780;BME280;57052;55.602;38.096;2023-05-01T12:35:43;99946.19;;;11.65;56.43
69780;BME280;57052;55.602;38.096;2023-05-01T12:38:19;99941.34;;;11.62;56.61
69780;BME280;57052;55.602;38.096;2023-05-01T12:40:53;99945.94;;;11.62;56.26
69780;BME280;57052;55.602;38.096;2023-05-01T12:43:37;99968.97;;;11.69;56.97
69780;BME280;57052;55.602;38.096;2023-05-01T12:46:04;99959.97;;;11.74;55.94
69780;BME280;57052;55.602;38.096;2023-05-01T12:48:30;99964.03;;;11.76;55.65
69780;BME280;57052;55.602;38.096;2023-05-01T12:50:59;99972.41;;;11.80;56.12
69780;BME280;57052;55.602;38.096;2023-05-01T12:53:26;99957.56;;;11.67;55.81
69780;BME280;57052;55.602;38.096;2023-05-01T12:55:56;99972.50;;;11.70;55.34
69780;BME280;57052;55.602;38.096;2023-05-01T12:58:23;99964.47;;;11.49;55.92
69780;BME280;57052;55.602;38.096;2023-05-01T13:00:51;99981.84;;;11.43;55.97
69780;BME280;57052;55.602;38.096;2023-05-01T13:03:25;99978.63;;;11.41;55.66
69780;BME280;57052;55.602;38.096;2023-05-01T13:06:02;99959.25;;;11.19;55.61
69780;BME280;57052;55.602;38.096;2023-05-01T13:08:46;99985.22;;;11.25;55.13
69780;BME280;57052;55.602;38.096;2023-05-01T13:11:16;99983.00;;;11.32;55.64
69780;BME280;57052;55.602;38.096;2023-05-01T13:13:43;99994.41;;;11.29;55.81
69780;BME280;57052;55.602;38.096;2023-05-01T13:16:11;100007.94;;;11.34;55.89
69780;BME280;57052;55.602;38.096;2023-05-01T13:18:47;99993.63;;;11.24;56.09
69780;BME280;57052;55.602;38.096;2023-05-01T13:21:17;100008.28;;;11.18;56.33
69780;BME280;57052;55.602;38.096;2023-05-01T13:23:59;100019.97;;;11.08;56.30
69780;BME280;57052;55.602;38.096;2023-05-01T13:26:30;100028.41;;;11.02;56.43
69780;BME280;57052;55.602;38.096;2023-05-01T13:28:57;100010.84;;;10.94;56.45
69780;BME280;57052;55.602;38.096;2023-05-01T13:31:24;100046.56;;;11.01;56.62
69780;BME280;57052;55.602;38.096;2023-05-01T13:33:51;100042.47;;;11.04;56.70
69780;BME280;57052;55.602;38.096;2023-05-01T13:36:17;100045.22;;;10.93;56.78
69780;BME280;57052;55.602;38.096;2023-05-01T13:38:50;100065.56;;;10.86;56.61
69780;BME280;57052;55.602;38.096;2023-05-01T13:41:19;100073.41;;;10.87;56.70